Time;durP1;ratioP1;P1;durP2;ratioP2;P2;SDS_P1;SDS_P2;PMS_P1;PMS_P2;Temp;Humidity;BMP_temperature;BMP_pressure;BME280_temperature;BME280_humidity;BME280_pressure;Samples;Min_cycle;Max_cycle;Signal;HPM_P1;HPM_P2
2022/12/12 00:02:09;;;;;;;26.40;15.90;;;;;;;;;;4991173;28;20038;-57
2022/12/12 00:04:37;;;;;;;27.40;15.30;;;;;;;;;;4991171;28;20613;-54
2022/12/12 00:07:04;;;;;;;27.55;15.45;;;;;;;;;;4991162;28;20116;-57
2022/12/12 00:09:32;;;;;;;27.48;14.57;;;;;;;;;;4991105;28;20129;-57
2022/12/12 00:12:00;;;;;;;26.55;14.25;;;;;;;;;;4990812;28;20042;-57
2022/12/12 00:14:27;;;;;;;25.67;15.80;;;;;;;;;;4990947;28;20091;-57
2022/12/12 00:16:54;;;;;;;26.40;15.57;;;;;;;;;;4990998;28;20434;-58
2022/12/12 00:19:22;;;;;;;27.70;15.23;;;;;;;;;;4990819;28;20110;-57
2022/12/12 00:21:49;;;;;;;26.73;15.05;;;;;;;;;;4990847;28;20043;-56
2022/12/12 00:24:17;;;;;;;28.48;15.02;;;;;;;;;;4990858;28;20125;-54
2022/12/12 00:26:44;;;;;;;26.70;15.07;;;;;;;;;;4989637;28;20407;-55
2022/12/12 00:29:12;;;;;;;25.33;15.45;;;;;;;;;;4989526;28;20097;-56
2022/12/12 00:31:40;;;;;;;27.27;15.15;;;;;;;;;;4990649;28;20034;-56
2022/12/12 00:34:09;;;;;;;28.20;16.17;;;;;;;;;;4990746;28;20602;-56
2022/12/12 00:36:36;;;;;;;24.48;14.73;;;;;;;;;;4990510;28;20095;-56
2022/12/12 00:39:04;;;;;;;29.42;15.75;;;;;;;;;;4990665;28;20681;-56
2022/12/12 00:41:31;;;;;;;29.88;16.30;;;;;;;;;;4990603;28;20092;-56
2022/12/12 00:43:59;;;;;;;29.25;15.75;;;;;;;;;;4990705;28;20064;-56
2022/12/12 00:46:26;;;;;;;32.33;16.98;;;;;;;;;;4990457;28;20514;-56
2022/12/12 00:48:57;;;;;;;33.22;17.77;;;;;;;;;;4990548;28;20046;-57
2022/12/12 00:51:25;;;;;;;28.98;17.00;;;;;;;;;;4990300;28;20038;-57
2022/12/12 00:53:54;;;;;;;30.58;16.25;;;;;;;;;;4990367;28;20514;-56
2022/12/12 00:56:22;;;;;;;33.50;17.05;;;;;;;;;;4990473;28;20047;-56
2022/12/12 00:58:50;;;;;;;32.72;18.35;;;;;;;;;;4990286;28;20043;-56
2022/12/12 01:01:19;;;;;;;29.00;16.13;;;;;;;;;;4990278;28;20039;-56
2022/12/12 01:03:47;;;;;;;31.33;16.50;;;;;;;;;;4990496;28;20396;-56
2022/12/12 01:06:15;;;;;;;27.75;15.30;;;;;;;;;;4989075;28;20449;-56
2022/12/12 01:08:42;;;;;;;26.77;15.70;;;;;;;;;;4990226;28;20046;-56
2022/12/12 01:11:10;;;;;;;27.90;15.73;;;;;;;;;;4990206;28;20504;-56
2022/12/12 01:13:38;;;;;;;28.42;16.23;;;;;;;;;;4988873;28;20117;-56
2022/12/12 01:16:07;;;;;;;27.58;15.18;;;;;;;;;;4989047;28;20039;-57
2022/12/12 01:18:35;;;;;;;28.27;15.57;;;;;;;;;;4990077;28;20046;-55
2022/12/12 01:21:03;;;;;;;29.90;16.00;;;;;;;;;;4989997;28;20400;-56
2022/12/12 01:23:31;;;;;;;32.00;15.93;;;;;;;;;;4990080;28;20038;-56
2022/12/12 01:25:59;;;;;;;32.10;15.95;;;;;;;;;;4989871;28;20450;-56
2022/12/12 01:28:27;;;;;;;30.17;16.55;;;;;;;;;;4989926;28;20035;-56
2022/12/12 01:30:54;;;;;;;30.60;17.23;;;;;;;;;;4989905;28;20066;-56
2022/12/12 01:33:22;;;;;;;31.23;16.45;;;;;;;;;;4989848;28;20134;-56
2022/12/12 01:35:49;;;;;;;30.67;17.48;;;;;;;;;;4989898;28;20035;-55
2022/12/12 01:38:17;;;;;;;29.00;16.27;;;;;;;;;;4991933;28;20082;-57
2022/12/12 01:40:45;;;;;;;30.40;16.60;;;;;;;;;;4993204;28;20035;-57
2022/12/12 01:43:13;;;;;;;27.23;15.93;;;;;;;;;;4993223;28;20503;-53
2022/12/12 01:45:55;;;;;;;28.13;15.32;;;;;;;;;;4993175;28;20438;-54
2022/12/12 01:48:25;;;;;;;27.27;15.43;;;;;;;;;;4993127;28;20121;-55
2022/12/12 01:50:52;;;;;;;28.85;15.02;;;;;;;;;;4993041;28;20047;-55
2022/12/12 01:53:20;;;;;;;26.73;15.55;;;;;;;;;;4993025;28;20400;-55
2022/12/12 01:55:49;;;;;;;23.15;14.75;;;;;;;;;;4991834;28;20061;-56
2022/12/12 01:58:16;;;;;;;30.70;16.17;;;;;;;;;;4993103;28;20043;-56
2022/12/12 02:00:44;;;;;;;26.00;15.02;;;;;;;;;;4991740;28;20047;-56
2022/12/12 02:03:12;;;;;;;26.08;15.32;;;;;;;;;;4993207;28;20399;-57
2022/12/12 02:05:42;;;;;;;25.70;14.75;;;;;;;;;;4992974;28;20492;-55
2022/12/12 02:08:10;;;;;;;25.35;14.57;;;;;;;;;;4991566;28;20396;-56
2022/12/12 02:10:38;;;;;;;27.15;13.98;;;;;;;;;;4993008;28;20444;-56
2022/12/12 02:13:08;;;;;;;24.58;14.25;;;;;;;;;;4992633;28;20074;-57
2022/12/12 02:15:41;;;;;;;24.77;14.32;;;;;;;;;;4992576;28;20066;-56
2022/12/12 02:18:28;;;;;;;23.23;14.43;;;;;;;;;;4992752;28;20122;-57
2022/12/12 02:21:08;;;;;;;25.83;14.85;;;;;;;;;;4992618;28;20050;-56
2022/12/12 02:23:38;;;;;;;24.60;14.02;;;;;;;;;;4993045;28;20042;-56
2022/12/12 02:26:20;;;;;;;25.67;14.77;;;;;;;;;;4992483;28;20054;-56
2022/12/12 02:29:07;;;;;;;24.35;13.60;;;;;;;;;;4992528;28;20069;-55
2022/12/12 02:31:40;;;;;;;25.77;14.38;;;;;;;;;;4992870;28;20490;-55
2022/12/12 02:34:18;;;;;;;23.95;13.30;;;;;;;;;;4992541;28;20099;-55
2022/12/12 02:36:46;;;;;;;25.25;14.55;;;;;;;;;;4992406;28;20046;-56
2022/12/12 02:39:19;;;;;;;27.02;15.38;;;;;;;;;;4992467;28;20434;-56
2022/12/12 02:41:50;;;;;;;24.27;14.30;;;;;;;;;;4992696;28;20046;-55
2022/12/12 02:44:23;;;;;;;24.27;14.13;;;;;;;;;;4992305;28;20042;-56
2022/12/12 02:47:00;;;;;;;23.73;14.10;;;;;;;;;;4991130;28;20052;-57
2022/12/12 02:49:28;;;;;;;25.52;14.48;;;;;;;;;;4991326;28;20048;-56
2022/12/12 02:51:56;;;;;;;26.20;14.68;;;;;;;;;;4992098;28;20050;-56
2022/12/12 02:54:24;;;;;;;24.13;13.18;;;;;;;;;;4992178;28;20492;-55
2022/12/12 02:56:56;;;;;;;25.20;14.20;;;;;;;;;;4992029;28;20039;-56
2022/12/12 02:59:32;;;;;;;25.52;15.27;;;;;;;;;;4991965;28;20057;-57
2022/12/12 03:02:19;;;;;;;23.90;14.35;;;;;;;;;;4990688;28;20069;-56
2022/12/12 03:07:51;;;;;;;23.95;13.68;;;;;;;;;;4990538;28;20408;-57
2022/12/12 03:10:19;;;;;;;24.35;13.88;;;;;;;;;;4990970;28;20070;-56
2022/12/12 03:13:08;;;;;;;22.30;12.82;;;;;;;;;;4991725;28;20451;-56
2022/12/12 03:15:43;;;;;;;22.95;13.85;;;;;;;;;;4991590;28;20039;-56
2022/12/12 03:18:14;;;;;;;22.77;13.40;;;;;;;;;;4991755;28;20666;-56
2022/12/12 03:20:47;;;;;;;23.23;13.45;;;;;;;;;;4991732;28;20070;-56
2022/12/12 03:23:17;;;;;;;23.08;13.00;;;;;;;;;;4991617;28;20035;-56
2022/12/12 03:25:49;;;;;;;24.98;13.63;;;;;;;;;;4991658;28;20190;-56
2022/12/12 03:28:26;;;;;;;23.05;13.77;;;;;;;;;;4991484;28;20041;-57
2022/12/12 03:30:55;;;;;;;22.58;12.68;;;;;;;;;;4991636;28;20066;-56
2022/12/12 03:33:28;;;;;;;23.27;13.90;;;;;;;;;;4991467;28;20553;-56
2022/12/12 03:36:01;;;;;;;22.90;12.93;;;;;;;;;;4991523;28;20047;-55
2022/12/12 03:38:31;;;;;;;23.20;13.40;;;;;;;;;;4991368;28;20042;-56
2022/12/12 03:41:01;;;;;;;23.08;13.13;;;;;;;;;;4991396;28;20126;-56
2022/12/12 03:43:40;;;;;;;26.60;14.60;;;;;;;;;;4991283;28;20058;-56
2022/12/12 03:46:13;;;;;;;23.52;14.50;;;;;;;;;;4991556;28;20050;-56
2022/12/12 03:48:43;;;;;;;25.25;14.27;;;;;;;;;;4991130;28;20050;-55
2022/12/12 03:51:12;;;;;;;24.52;14.27;;;;;;;;;;4991229;28;20100;-56
2022/12/12 03:53:52;;;;;;;27.45;13.65;;;;;;;;;;4991153;28;20039;-56
2022/12/12 03:56:31;;;;;;;23.58;13.70;;;;;;;;;;4991125;28;20099;-55
2022/12/12 03:59:06;;;;;;;25.92;14.23;;;;;;;;;;4991420;28;20038;-56
2022/12/12 04:01:42;;;;;;;22.75;13.25;;;;;;;;;;4991067;28;20070;-56
2022/12/12 04:04:29;;;;;;;25.50;13.70;;;;;;;;;;4991126;28;20551;-56
2022/12/12 04:07:02;;;;;;;25.50;13.88;;;;;;;;;;4990103;28;20150;-56
2022/12/12 04:15:18;;;;;;;25.70;14.27;;;;;;;;;;4990977;28;20670;-56
2022/12/12 04:17:54;;;;;;;27.73;14.88;;;;;;;;;;4990884;28;20446;-56
2022/12/12 04:23:17;;;;;;;27.27;15.13;;;;;;;;;;4990598;28;20403;-55
2022/12/12 04:29:03;;;;;;;24.83;14.43;;;;;;;;;;5003653;28;20058;-55
2022/12/12 04:31:31;;;;;;;25.33;13.18;;;;;;;;;;4990444;28;20053;-53
2022/12/12 04:34:03;;;;;;;22.73;13.35;;;;;;;;;;4990509;28;20046;-54
2022/12/12 04:36:31;;;;;;;24.05;13.23;;;;;;;;;;4990530;28;20034;-56
2022/12/12 04:39:00;;;;;;;23.58;13.80;;;;;;;;;;4990276;28;20043;-53
2022/12/12 04:41:28;;;;;;;24.75;14.02;;;;;;;;;;4990004;28;20048;-56
2022/12/12 04:43:56;;;;;;;23.05;13.70;;;;;;;;;;4990305;28;20450;-58
2022/12/12 04:46:26;;;;;;;24.70;13.38;;;;;;;;;;4990463;28;20117;-55
2022/12/12 04:48:59;;;;;;;26.17;13.60;;;;;;;;;;4990291;28;20050;-57
2022/12/12 04:51:29;;;;;;;26.52;14.82;;;;;;;;;;4990109;28;20053;-56
2022/12/12 04:54:09;;;;;;;24.77;13.35;;;;;;;;;;4990205;28;20050;-56
2022/12/12 04:56:38;;;;;;;24.67;14.07;;;;;;;;;;4990381;28;20035;-56
2022/12/12 04:59:06;;;;;;;24.88;14.00;;;;;;;;;;4990387;28;20088;-56
2022/12/12 05:01:46;;;;;;;24.13;13.57;;;;;;;;;;4989125;28;20042;-57
2022/12/12 05:04:33;;;;;;;24.17;14.05;;;;;;;;;;4990484;28;20120;-56
2022/12/12 05:07:06;;;;;;;22.55;13.07;;;;;;;;;;4990130;28;20480;-56
2022/12/12 05:09:34;;;;;;;27.63;14.95;;;;;;;;;;4990181;28;20519;-57
2022/12/12 05:12:01;;;;;;;24.73;14.57;;;;;;;;;;4990451;28;20100;-58
2022/12/12 05:14:30;;;;;;;24.33;14.98;;;;;;;;;;4993547;28;20039;-57
2022/12/12 05:17:09;;;;;;;22.08;13.52;;;;;;;;;;4993570;28;20038;-57
2022/12/12 05:19:36;;;;;;;29.17;14.80;;;;;;;;;;4993698;28;20051;-56
2022/12/12 05:22:04;;;;;;;26.42;14.82;;;;;;;;;;4993513;28;20038;-54
2022/12/12 05:24:31;;;;;;;23.58;14.02;;;;;;;;;;4993469;28;20039;-57
2022/12/12 05:26:59;;;;;;;28.45;16.02;;;;;;;;;;4993344;28;20043;-58
2022/12/12 05:29:27;;;;;;;27.10;15.77;;;;;;;;;;4993389;28;20053;-57
2022/12/12 05:31:54;;;;;;;29.80;14.35;;;;;;;;;;4992059;28;20104;-57
2022/12/12 05:34:21;;;;;;;28.00;15.48;;;;;;;;;;4991285;28;20606;-56
2022/12/12 05:36:49;;;;;;;25.30;14.60;;;;;;;;;;4991679;28;20042;-57
2022/12/12 05:39:17;;;;;;;29.02;15.88;;;;;;;;;;4993245;28;20084;-56
2022/12/12 05:41:44;;;;;;;23.92;14.57;;;;;;;;;;4992184;28;20074;-57
2022/12/12 05:44:12;;;;;;;27.52;14.77;;;;;;;;;;4993101;28;20659;-58
2022/12/12 05:46:39;;;;;;;26.25;14.50;;;;;;;;;;4993187;28;20046;-57
2022/12/12 05:49:07;;;;;;;28.73;15.45;;;;;;;;;;4993160;28;20077;-55
2022/12/12 05:51:34;;;;;;;26.83;15.30;;;;;;;;;;4993175;28;20119;-56
2022/12/12 05:54:02;;;;;;;26.25;14.95;;;;;;;;;;4993057;28;20046;-57
2022/12/12 05:56:29;;;;;;;25.60;14.23;;;;;;;;;;4993050;28;20036;-56
2022/12/12 05:58:56;;;;;;;23.65;13.40;;;;;;;;;;4992966;28;20042;-57
2022/12/12 06:01:24;;;;;;;28.25;14.40;;;;;;;;;;4992803;28;20038;-57
2022/12/12 06:03:51;;;;;;;24.95;14.45;;;;;;;;;;4991757;28;20078;-56
2022/12/12 06:06:20;;;;;;;22.98;12.98;;;;;;;;;;4993291;28;20438;-56
2022/12/12 06:08:48;;;;;;;24.52;13.60;;;;;;;;;;4992949;28;20499;-56
2022/12/12 06:11:15;;;;;;;21.63;12.73;;;;;;;;;;4992871;28;20045;-56
2022/12/12 06:13:42;;;;;;;23.77;13.13;;;;;;;;;;4992842;28;20078;-55
2022/12/12 06:16:12;;;;;;;23.42;13.57;;;;;;;;;;4993043;28;20042;-54
2022/12/12 06:18:39;;;;;;;24.95;13.55;;;;;;;;;;4993054;28;20045;-54
2022/12/12 06:21:08;;;;;;;23.45;13.15;;;;;;;;;;4992779;28;20117;-55
2022/12/12 06:23:36;;;;;;;22.83;12.13;;;;;;;;;;4990532;28;20097;-54
2022/12/12 06:26:04;;;;;;;21.95;13.55;;;;;;;;;;4992390;28;20458;-57
2022/12/12 06:28:32;;;;;;;24.67;13.00;;;;;;;;;;4992686;28;20073;-55
2022/12/12 06:30:59;;;;;;;22.90;13.20;;;;;;;;;;4992283;28;20050;-56
2022/12/12 06:33:27;;;;;;;21.63;12.88;;;;;;;;;;4992721;28;20073;-55
2022/12/12 06:36:02;;;;;;;22.95;13.75;;;;;;;;;;4992487;28;20046;-54
2022/12/12 06:38:30;;;;;;;24.55;14.73;;;;;;;;;;4992475;28;20046;-52
2022/12/12 06:40:57;;;;;;;25.98;14.27;;;;;;;;;;4992446;28;20488;-57
2022/12/12 06:43:25;;;;;;;26.10;14.38;;;;;;;;;;4992624;28;20149;-56
2022/12/12 06:45:52;;;;;;;25.58;14.18;;;;;;;;;;4992354;28;20038;-52
2022/12/12 06:48:20;;;;;;;24.15;13.75;;;;;;;;;;4992313;28;20050;-53
2022/12/12 06:50:47;;;;;;;25.45;15.27;;;;;;;;;;4992307;28;20081;-56
2022/12/12 06:53:15;;;;;;;26.95;15.25;;;;;;;;;;4992114;28;20049;-56
2022/12/12 06:55:43;;;;;;;28.42;15.95;;;;;;;;;;4992105;28;20570;-55
2022/12/12 06:58:11;;;;;;;28.77;15.98;;;;;;;;;;4992359;28;20125;-56
2022/12/12 07:00:38;;;;;;;28.73;15.95;;;;;;;;;;4992399;28;20069;-56
2022/12/12 07:03:06;;;;;;;30.92;15.93;;;;;;;;;;4991989;28;20047;-54
2022/12/12 07:05:33;;;;;;;31.75;16.30;;;;;;;;;;4991983;28;20066;-56
2022/12/12 07:08:01;;;;;;;30.33;15.93;;;;;;;;;;4990656;28;20129;-54
2022/12/12 07:10:30;;;;;;;28.55;16.10;;;;;;;;;;4992149;28;20050;-56
2022/12/12 07:12:57;;;;;;;26.38;14.57;;;;;;;;;;4991751;28;20499;-57
2022/12/12 07:15:24;;;;;;;23.23;12.95;;;;;;;;;;4991842;28;20092;-56
2022/12/12 07:17:52;;;;;;;23.65;14.30;;;;;;;;;;4992037;28;20490;-57
2022/12/12 07:20:20;;;;;;;23.25;13.85;;;;;;;;;;4991604;28;20084;-56
2022/12/12 07:22:47;;;;;;;24.95;14.57;;;;;;;;;;4991608;28;20042;-57
2022/12/12 07:25:15;;;;;;;22.42;13.25;;;;;;;;;;4991226;28;20085;-57
2022/12/12 07:27:42;;;;;;;22.00;13.50;;;;;;;;;;4991507;28;20096;-57
2022/12/12 07:30:11;;;;;;;26.10;13.32;;;;;;;;;;4991441;28;20042;-56
2022/12/12 07:32:38;;;;;;;26.98;15.60;;;;;;;;;;4991555;28;20057;-53
2022/12/12 07:35:06;;;;;;;24.38;14.50;;;;;;;;;;4991026;28;20137;-55
2022/12/12 07:37:33;;;;;;;24.17;12.77;;;;;;;;;;4991469;28;20043;-55
2022/12/12 07:40:01;;;;;;;22.60;13.02;;;;;;;;;;4991463;28;20054;-56
2022/12/12 07:42:28;;;;;;;19.52;12.70;;;;;;;;;;4991384;28;20046;-57
2022/12/12 07:44:56;;;;;;;19.98;12.13;;;;;;;;;;4991334;28;20073;-56
2022/12/12 07:47:23;;;;;;;23.08;12.10;;;;;;;;;;4991796;28;20388;-56
2022/12/12 07:49:51;;;;;;;19.98;13.00;;;;;;;;;;4991232;28;20488;-55
2022/12/12 07:52:18;;;;;;;19.08;11.90;;;;;;;;;;4990280;28;20440;-56
2022/12/12 07:54:46;;;;;;;18.92;11.77;;;;;;;;;;4989762;28;20054;-55
2022/12/12 07:57:13;;;;;;;20.45;12.40;;;;;;;;;;4991083;28;20088;-56
2022/12/12 07:59:40;;;;;;;22.73;12.95;;;;;;;;;;4991121;28;20049;-56
2022/12/12 08:02:09;;;;;;;23.75;18.23;;;;;;;;;;4990058;28;20393;-56
2022/12/12 08:04:37;;;;;;;21.50;12.27;;;;;;;;;;4991196;28;20389;-56
2022/12/12 08:07:04;;;;;;;17.85;11.48;;;;;;;;;;4989668;28;20495;-56
2022/12/12 08:09:35;;;;;;;18.10;11.65;;;;;;;;;;4991001;28;20047;-54
2022/12/12 08:12:03;;;;;;;17.98;11.77;;;;;;;;;;4990782;28;20096;-55
2022/12/12 08:14:31;;;;;;;19.88;11.55;;;;;;;;;;4990608;28;20043;-55
2022/12/12 08:16:58;;;;;;;17.70;11.30;;;;;;;;;;4990787;28;20050;-55
2022/12/12 08:19:26;;;;;;;15.27;10.93;;;;;;;;;;4990872;28;20095;-55
2022/12/12 08:21:53;;;;;;;17.05;11.05;;;;;;;;;;4990927;28;20442;-56
2022/12/12 08:24:21;;;;;;;16.05;10.10;;;;;;;;;;4990815;28;20034;-56
2022/12/12 08:26:50;;;;;;;16.98;11.07;;;;;;;;;;4990678;28;20054;-53
2022/12/12 08:29:17;;;;;;;15.73;10.05;;;;;;;;;;4991423;28;20400;-55
2022/12/12 08:31:45;;;;;;;17.70;11.48;;;;;;;;;;4990782;28;20504;-52
2022/12/12 08:34:12;;;;;;;16.17;10.80;;;;;;;;;;4990660;28;20404;-56
2022/12/12 08:36:40;;;;;;;16.25;11.00;;;;;;;;;;4990760;28;20042;-56
2022/12/12 08:39:09;;;;;;;16.30;10.75;;;;;;;;;;4990988;28;20077;-56
2022/12/12 08:41:38;;;;;;;18.02;11.35;;;;;;;;;;4990651;28;20047;-55
2022/12/12 08:44:06;;;;;;;17.25;10.82;;;;;;;;;;4990811;28;20068;-56
2022/12/12 08:46:34;;;;;;;19.60;11.18;;;;;;;;;;4989954;28;20484;-56
2022/12/12 08:49:02;;;;;;;15.32;10.13;;;;;;;;;;4990329;28;20100;-56
2022/12/12 08:51:29;;;;;;;17.75;10.55;;;;;;;;;;4990517;28;20092;-56
2022/12/12 08:53:57;;;;;;;15.48;9.85;;;;;;;;;;4990378;28;20049;-57
2022/12/12 08:56:24;;;;;;;15.77;10.32;;;;;;;;;;4989421;28;20503;-56
2022/12/12 08:58:52;;;;;;;16.20;9.70;;;;;;;;;;4990474;28;20038;-56
2022/12/12 09:01:20;;;;;;;16.48;9.85;;;;;;;;;;4989515;28;20518;-56
2022/12/12 09:03:49;;;;;;;19.65;10.70;;;;;;;;;;4989193;28;20046;-56
2022/12/12 09:06:17;;;;;;;16.15;10.52;;;;;;;;;;4990267;28;20439;-56
2022/12/12 09:08:44;;;;;;;14.70;10.77;;;;;;;;;;4989202;28;20492;-57
2022/12/12 09:11:12;;;;;;;16.75;10.80;;;;;;;;;;4990135;28;20070;-56
2022/12/12 09:13:40;;;;;;;18.92;11.57;;;;;;;;;;4990021;28;20046;-56
2022/12/12 09:16:08;;;;;;;16.33;10.57;;;;;;;;;;4990255;28;20111;-56
2022/12/12 09:18:35;;;;;;;16.70;10.20;;;;;;;;;;4988913;28;20604;-56
2022/12/12 09:21:03;;;;;;;18.25;10.98;;;;;;;;;;4990077;28;20046;-56
2022/12/12 09:23:30;;;;;;;19.40;11.68;;;;;;;;;;4989112;28;20039;-56
2022/12/12 09:25:58;;;;;;;19.30;12.05;;;;;;;;;;4989989;28;20054;-56
2022/12/12 09:28:26;;;;;;;18.85;11.65;;;;;;;;;;4988954;28;20557;-57
2022/12/12 09:30:53;;;;;;;19.98;12.65;;;;;;;;;;4989895;28;20088;-56
2022/12/12 09:33:21;;;;;;;18.70;12.75;;;;;;;;;;4989983;28;20091;-56
2022/12/12 09:35:56;;;;;;;18.70;12.82;;;;;;;;;;4989706;28;20046;-56
2022/12/12 09:38:23;;;;;;;18.48;12.15;;;;;;;;;;4989902;28;20038;-56
2022/12/12 09:40:53;;;;;;;19.38;11.93;;;;;;;;;;4989950;28;20046;-56
2022/12/12 09:43:28;;;;;;;20.98;12.30;;;;;;;;;;4990030;28;20455;-56
2022/12/12 09:45:56;;;;;;;18.73;11.13;;;;;;;;;;4989521;28;20042;-57
2022/12/12 09:48:26;;;;;;;21.38;12.35;;;;;;;;;;4989608;28;20136;-57
2022/12/12 09:50:54;;;;;;;19.58;12.90;;;;;;;;;;4989916;28;20536;-56
2022/12/12 09:53:22;;;;;;;19.55;12.93;;;;;;;;;;4990039;28;20396;-57
2022/12/12 09:56:05;;;;;;;17.60;12.23;;;;;;;;;;4989615;28;20042;-57
2022/12/12 09:58:40;;;;;;;17.50;12.05;;;;;;;;;;4989438;28;20046;-56
2022/12/12 10:01:25;;;;;;;20.15;12.75;;;;;;;;;;4992984;28;20108;-57
2022/12/12 10:04:01;;;;;;;18.67;11.02;;;;;;;;;;4992996;28;20069;-57
2022/12/12 10:06:31;;;;;;;18.05;12.00;;;;;;;;;;4992892;28;20499;-56
2022/12/12 10:09:23;;;;;;;18.20;11.30;;;;;;;;;;4992830;28;20072;-56
2022/12/12 10:11:53;;;;;;;17.38;11.40;;;;;;;;;;4992723;28;20043;-56
2022/12/12 10:14:36;;;;;;;22.65;12.00;;;;;;;;;;4991550;28;20085;-56
2022/12/12 10:17:06;;;;;;;15.68;10.05;;;;;;;;;;4992736;28;20049;-56
2022/12/12 10:19:38;;;;;;;17.10;11.00;;;;;;;;;;4992705;28;20488;-57
2022/12/12 10:22:12;;;;;;;19.45;11.25;;;;;;;;;;4992761;28;20045;-55
2022/12/12 10:24:46;;;;;;;16.15;10.45;;;;;;;;;;4992544;28;20052;-56
2022/12/12 10:27:14;;;;;;;18.98;11.05;;;;;;;;;;4992593;28;20069;-57
2022/12/12 10:29:45;;;;;;;18.15;10.75;;;;;;;;;;4992614;28;20042;-57
2022/12/12 10:32:31;;;;;;;16.25;10.18;;;;;;;;;;4992371;28;20046;-55
2022/12/12 10:34:59;;;;;;;15.52;10.13;;;;;;;;;;4992162;28;20065;-55
2022/12/12 10:37:42;;;;;;;15.80;10.27;;;;;;;;;;4992377;28;20557;-56
2022/12/12 10:40:29;;;;;;;19.42;10.93;;;;;;;;;;4992529;28;20141;-56
2022/12/12 10:43:00;;;;;;;15.80;10.13;;;;;;;;;;4992622;28;20385;-56
2022/12/12 10:45:30;;;;;;;14.95;10.73;;;;;;;;;;4992426;28;20042;-54
2022/12/12 10:47:58;;;;;;;17.02;10.57;;;;;;;;;;4992340;28;20057;-57
2022/12/12 10:50:46;;;;;;;16.80;11.05;;;;;;;;;;4992316;28;20624;-57
2022/12/12 10:53:14;;;;;;;16.75;10.63;;;;;;;;;;4992248;28;20515;-55
2022/12/12 10:55:41;;;;;;;18.95;10.88;;;;;;;;;;4992054;28;20118;-56
2022/12/12 10:58:09;;;;;;;17.30;11.18;;;;;;;;;;4992148;28;20060;-57
2022/12/12 11:00:41;;;;;;;18.48;11.75;;;;;;;;;;4992136;28;20042;-58
2022/12/12 11:03:14;;;;;;;16.42;10.82;;;;;;;;;;4991982;28;20100;-58
2022/12/12 11:05:41;;;;;;;15.27;9.80;;;;;;;;;;4991979;28;20061;-57
2022/12/12 11:08:18;;;;;;;14.25;9.63;;;;;;;;;;4991901;28;20496;-55
2022/12/12 11:10:58;;;;;;;14.35;8.35;;;;;;;;;;4991039;28;20046;-55
2022/12/12 11:13:25;;;;;;;12.30;8.32;;;;;;;;;;4991837;28;20045;-56
2022/12/12 11:16:01;;;;;;;13.23;8.02;;;;;;;;;;4991859;28;20042;-58
2022/12/12 11:18:28;;;;;;;11.25;7.82;;;;;;;;;;4991828;28;20066;-58
2022/12/12 11:21:02;;;;;;;12.50;7.90;;;;;;;;;;4991694;28;20107;-57
2022/12/12 11:23:31;;;;;;;10.73;7.68;;;;;;;;;;4991588;28;20082;-58
2022/12/12 11:26:18;;;;;;;13.40;7.78;;;;;;;;;;4991437;28;20080;-57
2022/12/12 11:28:51;;;;;;;13.20;8.45;;;;;;;;;;4991483;28;20123;-57
2022/12/12 11:31:21;;;;;;;13.15;7.82;;;;;;;;;;4991523;28;20042;-57
2022/12/12 11:33:52;;;;;;;12.35;8.00;;;;;;;;;;4991472;28;20042;-57
2022/12/12 11:36:22;;;;;;;14.13;8.70;;;;;;;;;;4991703;28;20042;-56
2022/12/12 11:38:55;;;;;;;12.43;8.30;;;;;;;;;;4991515;28;20043;-57
2022/12/12 11:41:22;;;;;;;13.15;8.10;;;;;;;;;;4990095;28;20411;-56
2022/12/12 11:43:50;;;;;;;14.95;8.60;;;;;;;;;;4991224;28;20043;-57
2022/12/12 11:46:19;;;;;;;14.25;8.23;;;;;;;;;;4991307;28;20050;-56
2022/12/12 11:48:46;;;;;;;17.58;8.27;;;;;;;;;;4991272;28;20050;-56
2022/12/12 11:51:29;;;;;;;15.90;8.35;;;;;;;;;;4991183;28;20039;-58
2022/12/12 11:53:57;;;;;;;13.93;8.90;;;;;;;;;;4991165;28;20091;-57
2022/12/12 11:56:29;;;;;;;15.05;8.60;;;;;;;;;;4990536;28;20093;-57
2022/12/12 11:59:13;;;;;;;13.52;8.65;;;;;;;;;;4989160;28;20046;-58
2022/12/12 12:01:50;;;;;;;15.65;8.43;;;;;;;;;;4990867;28;20042;-58
2022/12/12 12:04:24;;;;;;;18.08;9.15;;;;;;;;;;4990850;28;20438;-58
2022/12/12 12:07:04;;;;;;;15.02;9.23;;;;;;;;;;4991289;28;20065;-58
2022/12/12 12:09:45;;;;;;;13.90;9.05;;;;;;;;;;4991410;28;20429;-62
2022/12/12 12:12:16;;;;;;;14.65;8.98;;;;;;;;;;4990841;28;20046;-62
2022/12/12 12:14:59;;;;;;;14.20;9.60;;;;;;;;;;4990628;28;20095;-62
2022/12/12 12:17:46;;;;;;;15.32;9.88;;;;;;;;;;4990668;28;20043;-65
2022/12/12 12:20:34;;;;;;;15.98;10.38;;;;;;;;;;4991736;28;20054;-65
2022/12/12 12:23:14;;;;;;;13.77;9.07;;;;;;;;;;5002341;28;20072;-60
2022/12/12 12:25:48;;;;;;;13.57;8.93;;;;;;;;;;5008737;28;20121;-57
2022/12/12 12:28:15;;;;;;;13.77;9.07;;;;;;;;;;5009827;28;20049;-58
2022/12/12 12:31:12;;;;;;;18.95;11.52;;;;;;;;;;5010350;28;20446;-58
2022/12/12 12:33:52;;;;;;;16.90;9.05;;;;;;;;;;5014019;28;20058;-59
2022/12/12 12:36:23;;;;;;;13.93;9.80;;;;;;;;;;5010364;28;20390;-58
2022/12/12 12:39:04;;;;;;;14.70;9.38;;;;;;;;;;5010252;28;20038;-58
2022/12/12 12:41:37;;;;;;;16.05;9.70;;;;;;;;;;5008808;28;20125;-58
2022/12/12 12:44:06;;;;;;;14.93;9.93;;;;;;;;;;5010237;28;20281;-58
2022/12/12 12:46:40;;;;;;;17.08;9.93;;;;;;;;;;5010209;28;20318;-58
2022/12/12 12:49:27;;;;;;;15.93;10.80;;;;;;;;;;5010114;28;20121;-58
2022/12/12 12:52:02;;;;;;;15.95;10.50;;;;;;;;;;5009962;28;20518;-58
2022/12/12 12:54:32;;;;;;;17.75;10.25;;;;;;;;;;5010013;28;20034;-58
2022/12/12 12:57:19;;;;;;;17.70;11.20;;;;;;;;;;5008754;28;20053;-58
2022/12/12 13:00:08;;;;;;;15.85;10.55;;;;;;;;;;5009934;28;20514;-58
2022/12/12 13:02:45;;;;;;;17.48;11.07;;;;;;;;;;5009833;28;20041;-58
2022/12/12 13:05:25;;;;;;;16.85;10.98;;;;;;;;;;5010150;28;20392;-58
2022/12/12 13:08:11;;;;;;;15.93;10.75;;;;;;;;;;5009808;28;20078;-58
2022/12/12 13:10:46;;;;;;;19.40;11.35;;;;;;;;;;5009571;28;20042;-58
2022/12/12 13:13:37;;;;;;;18.27;12.00;;;;;;;;;;5009692;28;20038;-58
2022/12/12 13:16:10;;;;;;;15.68;10.18;;;;;;;;;;5008022;28;20054;-58
2022/12/12 13:18:40;;;;;;;18.23;11.23;;;;;;;;;;5009320;28;20348;-58
2022/12/12 13:21:30;;;;;;;19.77;12.10;;;;;;;;;;5009526;28;20358;-58
2022/12/12 13:23:58;;;;;;;17.40;11.07;;;;;;;;;;5009878;28;20110;-58
2022/12/12 13:26:40;;;;;;;18.45;11.50;;;;;;;;;;5009314;28;20046;-58
2022/12/12 13:29:26;;;;;;;18.05;10.63;;;;;;;;;;5009463;28;20116;-58
2022/12/12 13:32:09;;;;;;;19.98;12.30;;;;;;;;;;5009477;28;20037;-58
2022/12/12 13:34:38;;;;;;;17.60;12.02;;;;;;;;;;5012255;28;20045;-58
2022/12/12 13:37:06;;;;;;;18.23;11.38;;;;;;;;;;5012949;28;20042;-57
2022/12/12 13:39:36;;;;;;;18.45;11.98;;;;;;;;;;5012844;28;20034;-57
2022/12/12 13:42:05;;;;;;;21.40;13.02;;;;;;;;;;5012910;28;20391;-57
2022/12/12 13:44:46;;;;;;;27.13;17.35;;;;;;;;;;5012779;28;20088;-57
2022/12/12 13:47:13;;;;;;;21.98;12.80;;;;;;;;;;5012649;28;20050;-58
2022/12/12 13:49:40;;;;;;;21.70;12.95;;;;;;;;;;5012652;28;20095;-58
2022/12/12 13:52:20;;;;;;;19.08;11.98;;;;;;;;;;5012664;28;20069;-57
2022/12/12 13:54:48;;;;;;;17.75;11.43;;;;;;;;;;5012548;28;20057;-57
2022/12/12 13:57:35;;;;;;;17.90;11.27;;;;;;;;;;5012440;28;20050;-57
2022/12/12 14:00:03;;;;;;;19.73;11.63;;;;;;;;;;5012560;28;20038;-58
2022/12/12 14:02:40;;;;;;;18.02;10.65;;;;;;;;;;5012585;28;20054;-57
2022/12/12 14:05:22;;;;;;;18.90;11.85;;;;;;;;;;5012564;28;20049;-58
2022/12/12 14:07:51;;;;;;;19.05;10.95;;;;;;;;;;5012406;28;20132;-58
2022/12/12 14:10:24;;;;;;;17.17;11.00;;;;;;;;;;4995020;28;20046;-58
2022/12/12 14:12:51;;;;;;;18.88;10.63;;;;;;;;;;5012509;28;20045;-59
2022/12/12 14:15:19;;;;;;;17.40;11.00;;;;;;;;;;5012289;28;20091;-58
2022/12/12 14:18:05;;;;;;;16.00;10.27;;;;;;;;;;5012327;28;20052;-59
2022/12/12 14:20:37;;;;;;;15.45;10.07;;;;;;;;;;5012388;28;20040;-59
2022/12/12 14:23:05;;;;;;;13.65;9.63;;;;;;;;;;5012518;28;20037;-59
2022/12/12 14:25:34;;;;;;;18.95;11.05;;;;;;;;;;5011989;28;20530;-59
2022/12/12 14:28:22;;;;;;;22.80;12.38;;;;;;;;;;5012149;28;20514;-59
2022/12/12 14:30:57;;;;;;;19.88;11.50;;;;;;;;;;5006628;28;20034;-59
2022/12/12 14:33:24;;;;;;;;;;;;;;;;;;4992727;28;20035;-59
2022/12/12 14:35:55;;;;;;;15.45;9.63;;;;;;;;;;4992398;28;20013;-59
2022/12/12 14:38:29;;;;;;;18.02;11.32;;;;;;;;;;4992516;28;20042;-56
2022/12/12 14:41:01;;;;;;;20.23;11.90;;;;;;;;;;4992501;28;20039;-55
2022/12/12 14:43:36;;;;;;;21.33;12.02;;;;;;;;;;4992357;28;20074;-56
2022/12/12 14:46:04;;;;;;;20.77;12.30;;;;;;;;;;4991343;28;20035;-58
2022/12/12 14:48:32;;;;;;;19.20;11.98;;;;;;;;;;4992351;28;20038;-56
2022/12/12 14:51:03;;;;;;;16.27;10.95;;;;;;;;;;4992533;28;20062;-56
2022/12/12 14:53:31;;;;;;;20.70;11.75;;;;;;;;;;4992207;28;20051;-56
2022/12/12 14:56:00;;;;;;;16.27;10.15;;;;;;;;;;4999700;28;20046;-57
2022/12/12 14:58:29;;;;;;;15.20;9.93;;;;;;;;;;5002256;28;20422;-56